sensor_id;sensor_type;location;lat;lon;timestamp;P1;durP1;ratioP1;P2;durP2;ratioP2
36923;SDS011;22841;50.252;18.688;2023-07-31T00:00:53;7.80;;;4.75;;
36923;SDS011;22841;50.252;18.688;2023-07-31T00:03:19;10.73;;;5.18;;
36923;SDS011;22841;50.252;18.688;2023-07-31T00:05:45;7.78;;;6.00;;
36923;SDS011;22841;50.252;18.688;2023-07-31T00:08:11;7.45;;;5.55;;
36923;SDS011;22841;50.252;18.688;2023-07-31T00:10:37;9.70;;;5.32;;
36923;SDS011;22841;50.252;18.688;2023-07-31T00:13:04;7.20;;;5.10;;
36923;SDS011;22841;50.252;18.688;2023-07-31T00:15:30;6.68;;;5.53;;
36923;SDS011;22841;50.252;18.688;2023-07-31T00:17:56;9.45;;;5.50;;
36923;SDS011;22841;50.252;18.688;2023-07-31T00:20:22;7.80;;;5.40;;
36923;SDS011;22841;50.252;18.688;2023-07-31T00:22:48;8.00;;;5.75;;
36923;SDS011;22841;50.252;18.688;2023-07-31T00:25:14;6.95;;;5.85;;
36923;SDS011;22841;50.252;18.688;2023-07-31T00:27:40;14.77;;;5.78;;
36923;SDS011;22841;50.252;18.688;2023-07-31T00:30:10;21.73;;;6.53;;
36923;SDS011;22841;50.252;18.688;2023-07-31T00:32:36;16.58;;;6.45;;
36923;SDS011;22841;50.252;18.688;2023-07-31T00:35:02;11.90;;;5.68;;
36923;SDS011;22841;50.252;18.688;2023-07-31T00:37:29;8.55;;;5.20;;
36923;SDS011;22841;50.252;18.688;2023-07-31T00:39:55;10.15;;;5.95;;
36923;SDS011;22841;50.252;18.688;2023-07-31T00:42:21;14.13;;;5.97;;
36923;SDS011;22841;50.252;18.688;2023-07-31T00:44:47;8.57;;;4.90;;
36923;SDS011;22841;50.252;18.688;2023-07-31T00:47:13;11.43;;;5.30;;
36923;SDS011;22841;50.252;18.688;2023-07-31T00:49:39;18.30;;;6.25;;
36923;SDS011;22841;50.252;18.688;2023-07-31T00:52:05;16.83;;;5.85;;
36923;SDS011;22841;50.252;18.688;2023-07-31T00:54:32;8.57;;;5.50;;
36923;SDS011;22841;50.252;18.688;2023-07-31T00:56:59;10.80;;;6.20;;
36923;SDS011;22841;50.252;18.688;2023-07-31T00:59:25;15.32;;;5.57;;
36923;SDS011;22841;50.252;18.688;2023-07-31T01:01:51;9.48;;;5.43;;
36923;SDS011;22841;50.252;18.688;2023-07-31T01:04:18;11.02;;;5.35;;
36923;SDS011;22841;50.252;18.688;2023-07-31T01:06:46;10.13;;;5.80;;
36923;SDS011;22841;50.252;18.688;2023-07-31T01:09:23;10.18;;;5.70;;
36923;SDS011;22841;50.252;18.688;2023-07-31T01:12:00;11.30;;;5.90;;
36923;SDS011;22841;50.252;18.688;2023-07-31T01:14:28;29.88;;;5.85;;
36923;SDS011;22841;50.252;18.688;2023-07-31T01:16:54;6.80;;;5.53;;
36923;SDS011;22841;50.252;18.688;2023-07-31T01:19:21;12.63;;;5.63;;
36923;SDS011;22841;50.252;18.688;2023-07-31T01:24:41;13.48;;;5.25;;
36923;SDS011;22841;50.252;18.688;2023-07-31T01:27:43;13.23;;;5.97;;
36923;SDS011;22841;50.252;18.688;2023-07-31T01:30:16;8.20;;;4.35;;
36923;SDS011;22841;50.252;18.688;2023-07-31T01:32:46;7.90;;;4.43;;
36923;SDS011;22841;50.252;18.688;2023-07-31T01:35:14;9.48;;;3.75;;
36923;SDS011;22841;50.252;18.688;2023-07-31T01:37:40;5.45;;;4.20;;
36923;SDS011;22841;50.252;18.688;2023-07-31T01:40:07;3.78;;;3.10;;
36923;SDS011;22841;50.252;18.688;2023-07-31T01:42:34;10.63;;;3.90;;
36923;SDS011;22841;50.252;18.688;2023-07-31T01:45:00;4.22;;;3.40;;
36923;SDS011;22841;50.252;18.688;2023-07-31T01:47:26;8.25;;;3.80;;
36923;SDS011;22841;50.252;18.688;2023-07-31T01:49:52;4.38;;;3.58;;
36923;SDS011;22841;50.252;18.688;2023-07-31T01:52:19;4.97;;;3.65;;
36923;SDS011;22841;50.252;18.688;2023-07-31T01:54:45;4.20;;;3.53;;
36923;SDS011;22841;50.252;18.688;2023-07-31T01:57:11;5.70;;;4.03;;
36923;SDS011;22841;50.252;18.688;2023-07-31T01:59:37;5.43;;;4.32;;
36923;SDS011;22841;50.252;18.688;2023-07-31T02:02:03;4.35;;;3.45;;
36923;SDS011;22841;50.252;18.688;2023-07-31T02:04:29;16.60;;;3.45;;
36923;SDS011;22841;50.252;18.688;2023-07-31T02:06:55;3.83;;;3.30;;
36923;SDS011;22841;50.252;18.688;2023-07-31T02:09:21;4.82;;;3.08;;
36923;SDS011;22841;50.252;18.688;2023-07-31T02:11:48;9.68;;;3.17;;
36923;SDS011;22841;50.252;18.688;2023-07-31T02:14:14;7.47;;;3.13;;
36923;SDS011;22841;50.252;18.688;2023-07-31T02:16:40;7.18;;;3.80;;
36923;SDS011;22841;50.252;18.688;2023-07-31T02:19:08;7.32;;;3.33;;
36923;SDS011;22841;50.252;18.688;2023-07-31T02:21:34;6.03;;;3.83;;
36923;SDS011;22841;50.252;18.688;2023-07-31T02:24:00;3.67;;;3.35;;
36923;SDS011;22841;50.252;18.688;2023-07-31T02:26:26;7.18;;;4.00;;
36923;SDS011;22841;50.252;18.688;2023-07-31T02:28:52;8.65;;;3.13;;
36923;SDS011;22841;50.252;18.688;2023-07-31T02:31:18;9.55;;;5.85;;
36923;SDS011;22841;50.252;18.688;2023-07-31T02:33:44;5.45;;;3.55;;
36923;SDS011;22841;50.252;18.688;2023-07-31T02:36:11;5.85;;;3.28;;
36923;SDS011;22841;50.252;18.688;2023-07-31T02:38:37;5.72;;;3.17;;
36923;SDS011;22841;50.252;18.688;2023-07-31T02:41:03;10.45;;;2.95;;
36923;SDS011;22841;50.252;18.688;2023-07-31T02:43:29;6.03;;;3.17;;
36923;SDS011;22841;50.252;18.688;2023-07-31T02:45:55;6.28;;;3.13;;
36923;SDS011;22841;50.252;18.688;2023-07-31T02:48:21;11.85;;;3.38;;
36923;SDS011;22841;50.252;18.688;2023-07-31T02:50:47;7.35;;;3.33;;
36923;SDS011;22841;50.252;18.688;2023-07-31T02:53:13;8.95;;;3.20;;
36923;SDS011;22841;50.252;18.688;2023-07-31T02:55:40;8.73;;;2.97;;
36923;SDS011;22841;50.252;18.688;2023-07-31T02:58:06;7.90;;;3.28;;
36923;SDS011;22841;50.252;18.688;2023-07-31T03:00:32;7.25;;;3.67;;
36923;SDS011;22841;50.252;18.688;2023-07-31T03:02:59;9.40;;;3.58;;
36923;SDS011;22841;50.252;18.688;2023-07-31T03:05:25;12.25;;;3.80;;
36923;SDS011;22841;50.252;18.688;2023-07-31T03:07:51;6.13;;;3.17;;
36923;SDS011;22841;50.252;18.688;2023-07-31T03:10:17;9.55;;;3.47;;
36923;SDS011;22841;50.252;18.688;2023-07-31T03:12:47;4.05;;;3.30;;
36923;SDS011;22841;50.252;18.688;2023-07-31T03:15:13;4.72;;;3.10;;
36923;SDS011;22841;50.252;18.688;2023-07-31T03:17:40;11.18;;;3.25;;
36923;SDS011;22841;50.252;18.688;2023-07-31T03:20:06;7.15;;;3.90;;
36923;SDS011;22841;50.252;18.688;2023-07-31T03:22:34;6.47;;;3.42;;
36923;SDS011;22841;50.252;18.688;2023-07-31T03:25:01;14.98;;;3.90;;
36923;SDS011;22841;50.252;18.688;2023-07-31T03:27:28;7.35;;;2.97;;
36923;SDS011;22841;50.252;18.688;2023-07-31T03:29:54;9.75;;;3.15;;
36923;SDS011;22841;50.252;18.688;2023-07-31T03:32:20;4.45;;;2.90;;
36923;SDS011;22841;50.252;18.688;2023-07-31T03:34:46;6.20;;;3.00;;
36923;SDS011;22841;50.252;18.688;2023-07-31T03:37:12;8.60;;;3.28;;
36923;SDS011;22841;50.252;18.688;2023-07-31T03:39:38;6.63;;;2.78;;
36923;SDS011;22841;50.252;18.688;2023-07-31T03:42:05;18.88;;;3.35;;
36923;SDS011;22841;50.252;18.688;2023-07-31T03:44:31;8.77;;;3.40;;
36923;SDS011;22841;50.252;18.688;2023-07-31T03:46:57;6.70;;;3.08;;
36923;SDS011;22841;50.252;18.688;2023-07-31T03:49:23;10.05;;;3.78;;
36923;SDS011;22841;50.252;18.688;2023-07-31T03:51:50;6.93;;;2.97;;
36923;SDS011;22841;50.252;18.688;2023-07-31T03:54:16;9.20;;;3.58;;
36923;SDS011;22841;50.252;18.688;2023-07-31T03:56:42;7.85;;;3.42;;
36923;SDS011;22841;50.252;18.688;2023-07-31T03:59:08;10.77;;;3.72;;
36923;SDS011;22841;50.252;18.688;2023-07-31T04:01:34;10.15;;;3.78;;
36923;SDS011;22841;50.252;18.688;2023-07-31T04:04:00;12.20;;;3.92;;
36923;SDS011;22841;50.252;18.688;2023-07-31T04:06:26;5.47;;;3.75;;
36923;SDS011;22841;50.252;18.688;2023-07-31T04:08:52;4.75;;;3.30;;
36923;SDS011;22841;50.252;18.688;2023-07-31T04:11:19;6.45;;;3.40;;
36923;SDS011;22841;50.252;18.688;2023-07-31T04:13:45;6.93;;;2.88;;
36923;SDS011;22841;50.252;18.688;2023-07-31T04:16:11;7.45;;;3.20;;
36923;SDS011;22841;50.252;18.688;2023-07-31T04:18:37;8.05;;;3.13;;
36923;SDS011;22841;50.252;18.688;2023-07-31T04:21:03;6.05;;;3.00;;
36923;SDS011;22841;50.252;18.688;2023-07-31T04:23:29;10.63;;;4.10;;
36923;SDS011;22841;50.252;18.688;2023-07-31T04:25:56;6.70;;;3.55;;
36923;SDS011;22841;50.252;18.688;2023-07-31T04:28:22;3.83;;;3.42;;
36923;SDS011;22841;50.252;18.688;2023-07-31T04:30:48;6.20;;;4.25;;
36923;SDS011;22841;50.252;18.688;2023-07-31T04:33:14;7.85;;;4.20;;
36923;SDS011;22841;50.252;18.688;2023-07-31T04:35:40;6.47;;;3.78;;
36923;SDS011;22841;50.252;18.688;2023-07-31T04:38:06;9.70;;;3.97;;
36923;SDS011;22841;50.252;18.688;2023-07-31T04:40:32;9.40;;;3.80;;
36923;SDS011;22841;50.252;18.688;2023-07-31T04:42:59;12.10;;;4.00;;
36923;SDS011;22841;50.252;18.688;2023-07-31T04:45:25;10.18;;;3.88;;
36923;SDS011;22841;50.252;18.688;2023-07-31T04:47:51;8.27;;;4.20;;
36923;SDS011;22841;50.252;18.688;2023-07-31T04:50:17;8.50;;;3.95;;
36923;SDS011;22841;50.252;18.688;2023-07-31T04:52:43;10.57;;;3.92;;
36923;SDS011;22841;50.252;18.688;2023-07-31T04:55:09;6.00;;;3.72;;
36923;SDS011;22841;50.252;18.688;2023-07-31T04:57:35;8.15;;;4.40;;
36923;SDS011;22841;50.252;18.688;2023-07-31T05:00:01;8.73;;;4.07;;
36923;SDS011;22841;50.252;18.688;2023-07-31T05:02:28;7.43;;;4.65;;
36923;SDS011;22841;50.252;18.688;2023-07-31T05:04:54;8.65;;;4.07;;
36923;SDS011;22841;50.252;18.688;2023-07-31T05:07:20;10.77;;;4.55;;
36923;SDS011;22841;50.252;18.688;2023-07-31T05:09:46;5.30;;;4.30;;
36923;SDS011;22841;50.252;18.688;2023-07-31T05:12:12;7.20;;;4.85;;
36923;SDS011;22841;50.252;18.688;2023-07-31T05:14:38;10.65;;;4.82;;
36923;SDS011;22841;50.252;18.688;2023-07-31T05:17:05;12.73;;;5.03;;
36923;SDS011;22841;50.252;18.688;2023-07-31T05:19:31;9.60;;;5.03;;
36923;SDS011;22841;50.252;18.688;2023-07-31T05:21:57;8.70;;;4.47;;
36923;SDS011;22841;50.252;18.688;2023-07-31T05:24:23;10.68;;;4.75;;
36923;SDS011;22841;50.252;18.688;2023-07-31T05:26:49;8.88;;;4.43;;
36923;SDS011;22841;50.252;18.688;2023-07-31T05:29:15;16.77;;;4.82;;
36923;SDS011;22841;50.252;18.688;2023-07-31T05:31:42;8.82;;;4.75;;
36923;SDS011;22841;50.252;18.688;2023-07-31T05:34:08;15.95;;;5.05;;
36923;SDS011;22841;50.252;18.688;2023-07-31T05:36:34;11.27;;;5.50;;
36923;SDS011;22841;50.252;18.688;2023-07-31T05:39:00;8.32;;;3.90;;
36923;SDS011;22841;50.252;18.688;2023-07-31T05:41:31;9.57;;;3.80;;
36923;SDS011;22841;50.252;18.688;2023-07-31T05:43:58;6.53;;;3.53;;
36923;SDS011;22841;50.252;18.688;2023-07-31T05:46:24;5.63;;;3.28;;
36923;SDS011;22841;50.252;18.688;2023-07-31T05:48:50;7.55;;;3.08;;
36923;SDS011;22841;50.252;18.688;2023-07-31T05:51:16;4.30;;;3.05;;
36923;SDS011;22841;50.252;18.688;2023-07-31T05:53:42;7.10;;;3.13;;
36923;SDS011;22841;50.252;18.688;2023-07-31T05:56:09;9.20;;;2.53;;
36923;SDS011;22841;50.252;18.688;2023-07-31T05:58:35;6.72;;;3.25;;
36923;SDS011;22841;50.252;18.688;2023-07-31T06:01:01;11.02;;;3.58;;
36923;SDS011;22841;50.252;18.688;2023-07-31T06:03:27;4.90;;;3.03;;
36923;SDS011;22841;50.252;18.688;2023-07-31T06:05:53;6.95;;;4.03;;
36923;SDS011;22841;50.252;18.688;2023-07-31T06:08:20;4.55;;;3.08;;
36923;SDS011;22841;50.252;18.688;2023-07-31T06:10:46;9.80;;;3.28;;
36923;SDS011;22841;50.252;18.688;2023-07-31T06:13:12;7.05;;;2.65;;
36923;SDS011;22841;50.252;18.688;2023-07-31T06:15:38;10.80;;;2.97;;
36923;SDS011;22841;50.252;18.688;2023-07-31T06:18:04;7.53;;;3.25;;
36923;SDS011;22841;50.252;18.688;2023-07-31T06:20:33;11.65;;;2.78;;
36923;SDS011;22841;50.252;18.688;2023-07-31T06:23:00;5.72;;;2.90;;
36923;SDS011;22841;50.252;18.688;2023-07-31T06:25:26;4.50;;;2.80;;
36923;SDS011;22841;50.252;18.688;2023-07-31T06:27:52;6.88;;;2.83;;
36923;SDS011;22841;50.252;18.688;2023-07-31T06:30:18;9.95;;;2.50;;
36923;SDS011;22841;50.252;18.688;2023-07-31T06:32:44;7.05;;;3.00;;
36923;SDS011;22841;50.252;18.688;2023-07-31T06:35:11;9.00;;;2.97;;
36923;SDS011;22841;50.252;18.688;2023-07-31T06:37:37;8.35;;;3.30;;
36923;SDS011;22841;50.252;18.688;2023-07-31T06:40:06;15.32;;;2.85;;
36923;SDS011;22841;50.252;18.688;2023-07-31T06:42:34;5.20;;;2.60;;
36923;SDS011;22841;50.252;18.688;2023-07-31T06:45:01;5.47;;;2.80;;
36923;SDS011;22841;50.252;18.688;2023-07-31T06:47:28;7.40;;;2.38;;
36923;SDS011;22841;50.252;18.688;2023-07-31T06:49:54;7.05;;;2.40;;
36923;SDS011;22841;50.252;18.688;2023-07-31T06:52:21;11.75;;;3.00;;
36923;SDS011;22841;50.252;18.688;2023-07-31T06:55:00;10.25;;;2.88;;
36923;SDS011;22841;50.252;18.688;2023-07-31T06:57:28;5.72;;;3.50;;
36923;SDS011;22841;50.252;18.688;2023-07-31T06:59:54;6.95;;;2.28;;
36923;SDS011;22841;50.252;18.688;2023-07-31T07:02:20;9.98;;;2.95;;
36923;SDS011;22841;50.252;18.688;2023-07-31T07:04:46;5.15;;;2.40;;
36923;SDS011;22841;50.252;18.688;2023-07-31T07:07:12;7.45;;;2.75;;
36923;SDS011;22841;50.252;18.688;2023-07-31T07:09:39;6.75;;;2.70;;
36923;SDS011;22841;50.252;18.688;2023-07-31T07:12:05;4.32;;;2.83;;
36923;SDS011;22841;50.252;18.688;2023-07-31T07:14:32;5.60;;;2.50;;
36923;SDS011;22841;50.252;18.688;2023-07-31T07:16:58;11.02;;;2.20;;
36923;SDS011;22841;50.252;18.688;2023-07-31T07:19:24;7.68;;;2.22;;
36923;SDS011;22841;50.252;18.688;2023-07-31T07:21:50;3.58;;;2.28;;
36923;SDS011;22841;50.252;18.688;2023-07-31T07:24:16;6.72;;;2.33;;
36923;SDS011;22841;50.252;18.688;2023-07-31T07:26:42;6.40;;;2.25;;
36923;SDS011;22841;50.252;18.688;2023-07-31T07:29:08;11.48;;;3.30;;
36923;SDS011;22841;50.252;18.688;2023-07-31T07:31:36;8.43;;;2.88;;
36923;SDS011;22841;50.252;18.688;2023-07-31T07:34:02;7.05;;;2.58;;
36923;SDS011;22841;50.252;18.688;2023-07-31T07:36:28;9.88;;;2.35;;
36923;SDS011;22841;50.252;18.688;2023-07-31T07:38:54;8.07;;;2.65;;
36923;SDS011;22841;50.252;18.688;2023-07-31T07:41:20;7.82;;;2.10;;
36923;SDS011;22841;50.252;18.688;2023-07-31T07:43:46;8.57;;;2.53;;
36923;SDS011;22841;50.252;18.688;2023-07-31T07:46:13;4.63;;;1.77;;
36923;SDS011;22841;50.252;18.688;2023-07-31T07:48:39;4.25;;;1.80;;
36923;SDS011;22841;50.252;18.688;2023-07-31T07:51:05;3.72;;;2.08;;
36923;SDS011;22841;50.252;18.688;2023-07-31T07:53:31;3.05;;;2.03;;
36923;SDS011;22841;50.252;18.688;2023-07-31T07:55:57;4.80;;;1.90;;
36923;SDS011;22841;50.252;18.688;2023-07-31T07:58:23;5.25;;;2.15;;
36923;SDS011;22841;50.252;18.688;2023-07-31T08:00:52;4.82;;;2.13;;
36923;SDS011;22841;50.252;18.688;2023-07-31T08:03:18;7.72;;;1.90;;
36923;SDS011;22841;50.252;18.688;2023-07-31T08:05:45;7.68;;;2.10;;
36923;SDS011;22841;50.252;18.688;2023-07-31T08:08:14;4.63;;;1.80;;
36923;SDS011;22841;50.252;18.688;2023-07-31T08:10:43;3.05;;;2.45;;
36923;SDS011;22841;50.252;18.688;2023-07-31T08:13:10;6.20;;;2.15;;
36923;SDS011;22841;50.252;18.688;2023-07-31T08:15:37;6.82;;;1.92;;
36923;SDS011;22841;50.252;18.688;2023-07-31T08:18:03;7.30;;;2.00;;
36923;SDS011;22841;50.252;18.688;2023-07-31T08:20:30;8.25;;;2.22;;
36923;SDS011;22841;50.252;18.688;2023-07-31T08:22:56;5.97;;;2.10;;
36923;SDS011;22841;50.252;18.688;2023-07-31T08:25:23;11.15;;;2.10;;
36923;SDS011;22841;50.252;18.688;2023-07-31T08:27:49;6.10;;;2.10;;
36923;SDS011;22841;50.252;18.688;2023-07-31T08:30:18;6.45;;;2.00;;
36923;SDS011;22841;50.252;18.688;2023-07-31T08:32:45;3.13;;;1.73;;
36923;SDS011;22841;50.252;18.688;2023-07-31T08:35:11;6.00;;;2.25;;
36923;SDS011;22841;50.252;18.688;2023-07-31T08:37:38;5.82;;;2.33;;
36923;SDS011;22841;50.252;18.688;2023-07-31T08:40:04;3.55;;;1.98;;
36923;SDS011;22841;50.252;18.688;2023-07-31T08:42:32;9.35;;;2.50;;
36923;SDS011;22841;50.252;18.688;2023-07-31T08:44:59;4.90;;;2.30;;
36923;SDS011;22841;50.252;18.688;2023-07-31T08:47:27;3.88;;;2.15;;
36923;SDS011;22841;50.252;18.688;2023-07-31T08:49:53;6.57;;;2.28;;
36923;SDS011;22841;50.252;18.688;2023-07-31T08:52:21;2.78;;;1.55;;
36923;SDS011;22841;50.252;18.688;2023-07-31T08:54:47;6.20;;;2.13;;
36923;SDS011;22841;50.252;18.688;2023-07-31T08:57:13;4.38;;;2.03;;
36923;SDS011;22841;50.252;18.688;2023-07-31T08:59:40;3.40;;;2.00;;
36923;SDS011;22841;50.252;18.688;2023-07-31T09:02:07;4.00;;;2.00;;
36923;SDS011;22841;50.252;18.688;2023-07-31T09:04:34;5.22;;;2.20;;
36923;SDS011;22841;50.252;18.688;2023-07-31T09:07:02;4.13;;;2.05;;
36923;SDS011;22841;50.252;18.688;2023-07-31T09:09:32;4.38;;;1.75;;
36923;SDS011;22841;50.252;18.688;2023-07-31T09:11:59;9.38;;;1.98;;
36923;SDS011;22841;50.252;18.688;2023-07-31T09:14:25;3.40;;;1.73;;
36923;SDS011;22841;50.252;18.688;2023-07-31T09:16:55;3.40;;;1.77;;
36923;SDS011;22841;50.252;18.688;2023-07-31T09:19:32;8.38;;;1.90;;
36923;SDS011;22841;50.252;18.688;2023-07-31T09:22:02;3.28;;;1.77;;
36923;SDS011;22841;50.252;18.688;2023-07-31T09:24:30;6.80;;;1.92;;
36923;SDS011;22841;50.252;18.688;2023-07-31T09:26:58;4.30;;;2.25;;
36923;SDS011;22841;50.252;18.688;2023-07-31T09:29:27;5.43;;;2.03;;
36923;SDS011;22841;50.252;18.688;2023-07-31T09:32:18;7.40;;;2.10;;
36923;SDS011;22841;50.252;18.688;2023-07-31T09:35:14;5.30;;;1.67;;
36923;SDS011;22841;50.252;18.688;2023-07-31T09:38:13;6.32;;;2.25;;
36923;SDS011;22841;50.252;18.688;2023-07-31T09:40:47;5.57;;;1.80;;
36923;SDS011;22841;50.252;18.688;2023-07-31T09:43:19;10.70;;;1.65;;
36923;SDS011;22841;50.252;18.688;2023-07-31T09:45:47;3.13;;;1.80;;
36923;SDS011;22841;50.252;18.688;2023-07-31T09:48:14;6.97;;;2.00;;
36923;SDS011;22841;50.252;18.688;2023-07-31T09:50:42;10.50;;;2.03;;
36923;SDS011;22841;50.252;18.688;2023-07-31T09:53:12;4.70;;;1.73;;
36923;SDS011;22841;50.252;18.688;2023-07-31T09:55:39;5.68;;;1.70;;
36923;SDS011;22841;50.252;18.688;2023-07-31T09:58:10;4.38;;;1.67;;
36923;SDS011;22841;50.252;18.688;2023-07-31T10:00:37;6.22;;;1.73;;
36923;SDS011;22841;50.252;18.688;2023-07-31T10:03:04;3.72;;;1.90;;
36923;SDS011;22841;50.252;18.688;2023-07-31T10:05:35;2.47;;;1.60;;
36923;SDS011;22841;50.252;18.688;2023-07-31T10:08:08;4.35;;;2.17;;
36923;SDS011;22841;50.252;18.688;2023-07-31T10:13:32;2.63;;;1.70;;
36923;SDS011;22841;50.252;18.688;2023-07-31T10:15:59;3.20;;;1.55;;
36923;SDS011;22841;50.252;18.688;2023-07-31T10:18:26;6.60;;;1.95;;
36923;SDS011;22841;50.252;18.688;2023-07-31T10:20:54;3.65;;;1.70;;
36923;SDS011;22841;50.252;18.688;2023-07-31T10:23:21;4.55;;;2.15;;
36923;SDS011;22841;50.252;18.688;2023-07-31T10:25:49;3.72;;;1.77;;
36923;SDS011;22841;50.252;18.688;2023-07-31T10:28:43;3.50;;;1.70;;
36923;SDS011;22841;50.252;18.688;2023-07-31T10:31:11;4.95;;;1.75;;
36923;SDS011;22841;50.252;18.688;2023-07-31T10:33:38;5.50;;;1.88;;
36923;SDS011;22841;50.252;18.688;2023-07-31T10:36:18;8.15;;;2.08;;
36923;SDS011;22841;50.252;18.688;2023-07-31T10:38:45;3.60;;;1.23;;
36923;SDS011;22841;50.252;18.688;2023-07-31T10:41:14;3.08;;;2.20;;
36923;SDS011;22841;50.252;18.688;2023-07-31T10:43:40;8.38;;;2.15;;
36923;SDS011;22841;50.252;18.688;2023-07-31T10:46:13;3.85;;;2.00;;
36923;SDS011;22841;50.252;18.688;2023-07-31T10:48:40;3.13;;;1.90;;
36923;SDS011;22841;50.252;18.688;2023-07-31T10:51:10;5.15;;;1.70;;
36923;SDS011;22841;50.252;18.688;2023-07-31T10:53:38;4.43;;;1.70;;
36923;SDS011;22841;50.252;18.688;2023-07-31T10:56:09;3.10;;;2.15;;
36923;SDS011;22841;50.252;18.688;2023-07-31T10:58:41;3.08;;;1.80;;
36923;SDS011;22841;50.252;18.688;2023-07-31T11:01:10;4.05;;;1.63;;
36923;SDS011;22841;50.252;18.688;2023-07-31T11:03:46;2.58;;;1.60;;
36923;SDS011;22841;50.252;18.688;2023-07-31T11:06:14;2.17;;;1.77;;
36923;SDS011;22841;50.252;18.688;2023-07-31T11:08:50;5.95;;;1.83;;
36923;SDS011;22841;50.252;18.688;2023-07-31T11:11:18;3.83;;;1.88;;
36923;SDS011;22841;50.252;18.688;2023-07-31T11:13:46;3.22;;;1.58;;
36923;SDS011;22841;50.252;18.688;2023-07-31T11:16:18;5.47;;;2.10;;
36923;SDS011;22841;50.252;18.688;2023-07-31T11:18:46;6.57;;;1.77;;
36923;SDS011;22841;50.252;18.688;2023-07-31T11:21:14;6.10;;;2.40;;
36923;SDS011;22841;50.252;18.688;2023-07-31T11:23:45;4.07;;;2.33;;
36923;SDS011;22841;50.252;18.688;2023-07-31T11:26:12;5.03;;;1.80;;
36923;SDS011;22841;50.252;18.688;2023-07-31T11:28:38;2.88;;;1.75;;
36923;SDS011;22841;50.252;18.688;2023-07-31T11:31:11;2.47;;;1.50;;
36923;SDS011;22841;50.252;18.688;2023-07-31T11:33:37;6.53;;;1.80;;
36923;SDS011;22841;50.252;18.688;2023-07-31T11:36:03;5.88;;;1.88;;
36923;SDS011;22841;50.252;18.688;2023-07-31T11:38:30;7.07;;;2.00;;
36923;SDS011;22841;50.252;18.688;2023-07-31T11:40:58;3.42;;;1.70;;
36923;SDS011;22841;50.252;18.688;2023-07-31T11:43:29;4.72;;;1.73;;
36923;SDS011;22841;50.252;18.688;2023-07-31T11:45:57;7.45;;;1.60;;
36923;SDS011;22841;50.252;18.688;2023-07-31T11:48:28;5.07;;;2.45;;
36923;SDS011;22841;50.252;18.688;2023-07-31T11:51:00;1.95;;;1.48;;
36923;SDS011;22841;50.252;18.688;2023-07-31T11:53:51;5.60;;;2.00;;
36923;SDS011;22841;50.252;18.688;2023-07-31T11:56:24;3.28;;;1.83;;
36923;SDS011;22841;50.252;18.688;2023-07-31T11:58:58;6.57;;;2.80;;
36923;SDS011;22841;50.252;18.688;2023-07-31T12:01:25;6.35;;;2.25;;
36923;SDS011;22841;50.252;18.688;2023-07-31T12:03:55;4.72;;;2.17;;
36923;SDS011;22841;50.252;18.688;2023-07-31T12:06:25;1.98;;;1.60;;
36923;SDS011;22841;50.252;18.688;2023-07-31T12:09:04;6.72;;;1.92;;
36923;SDS011;22841;50.252;18.688;2023-07-31T12:11:31;2.90;;;1.63;;
36923;SDS011;22841;50.252;18.688;2023-07-31T12:14:07;6.07;;;2.00;;
36923;SDS011;22841;50.252;18.688;2023-07-31T12:16:35;7.10;;;1.90;;
36923;SDS011;22841;50.252;18.688;2023-07-31T12:19:01;5.53;;;2.75;;
36923;SDS011;22841;50.252;18.688;2023-07-31T12:21:27;3.97;;;1.92;;
36923;SDS011;22841;50.252;18.688;2023-07-31T12:23:54;11.45;;;2.30;;
36923;SDS011;22841;50.252;18.688;2023-07-31T12:26:21;5.85;;;1.50;;
36923;SDS011;22841;50.252;18.688;2023-07-31T12:28:49;6.40;;;1.85;;
36923;SDS011;22841;50.252;18.688;2023-07-31T12:31:17;5.20;;;1.85;;
36923;SDS011;22841;50.252;18.688;2023-07-31T12:33:45;6.97;;;1.85;;
36923;SDS011;22841;50.252;18.688;2023-07-31T12:36:13;7.03;;;1.90;;
36923;SDS011;22841;50.252;18.688;2023-07-31T12:38:40;4.30;;;1.95;;
36923;SDS011;22841;50.252;18.688;2023-07-31T12:41:07;5.32;;;1.30;;
36923;SDS011;22841;50.252;18.688;2023-07-31T12:43:35;3.72;;;2.13;;
36923;SDS011;22841;50.252;18.688;2023-07-31T12:46:02;2.20;;;1.70;;
36923;SDS011;22841;50.252;18.688;2023-07-31T12:48:29;2.90;;;1.85;;
36923;SDS011;22841;50.252;18.688;2023-07-31T12:50:55;4.85;;;1.55;;
36923;SDS011;22841;50.252;18.688;2023-07-31T12:53:21;4.72;;;1.85;;
36923;SDS011;22841;50.252;18.688;2023-07-31T12:55:47;5.95;;;1.65;;
36923;SDS011;22841;50.252;18.688;2023-07-31T12:58:13;3.42;;;1.90;;
36923;SDS011;22841;50.252;18.688;2023-07-31T13:00:39;3.38;;;1.73;;
36923;SDS011;22841;50.252;18.688;2023-07-31T13:03:05;7.82;;;2.38;;
36923;SDS011;22841;50.252;18.688;2023-07-31T13:05:32;3.80;;;1.80;;
36923;SDS011;22841;50.252;18.688;2023-07-31T13:07:58;6.70;;;1.67;;
36923;SDS011;22841;50.252;18.688;2023-07-31T13:10:24;9.27;;;1.98;;
36923;SDS011;22841;50.252;18.688;2023-07-31T13:12:52;2.88;;;1.90;;
36923;SDS011;22841;50.252;18.688;2023-07-31T13:15:18;2.50;;;1.60;;
36923;SDS011;22841;50.252;18.688;2023-07-31T13:17:45;6.35;;;2.25;;
36923;SDS011;22841;50.252;18.688;2023-07-31T13:20:11;3.15;;;1.55;;
36923;SDS011;22841;50.252;18.688;2023-07-31T13:22:38;14.55;;;2.15;;
36923;SDS011;22841;50.252;18.688;2023-07-31T13:25:04;4.15;;;1.67;;
36923;SDS011;22841;50.252;18.688;2023-07-31T13:27:31;4.40;;;1.67;;
36923;SDS011;22841;50.252;18.688;2023-07-31T13:29:57;4.28;;;1.67;;
36923;SDS011;22841;50.252;18.688;2023-07-31T13:32:23;3.13;;;1.55;;
36923;SDS011;22841;50.252;18.688;2023-07-31T13:34:50;5.00;;;1.73;;
36923;SDS011;22841;50.252;18.688;2023-07-31T13:37:16;4.32;;;1.52;;
36923;SDS011;22841;50.252;18.688;2023-07-31T13:39:43;4.90;;;1.85;;
36923;SDS011;22841;50.252;18.688;2023-07-31T13:42:09;50.05;;;4.05;;
36923;SDS011;22841;50.252;18.688;2023-07-31T13:44:46;7.22;;;1.90;;
36923;SDS011;22841;50.252;18.688;2023-07-31T13:47:12;3.25;;;2.05;;
36923;SDS011;22841;50.252;18.688;2023-07-31T13:49:38;6.40;;;1.77;;
36923;SDS011;22841;50.252;18.688;2023-07-31T13:52:04;5.72;;;1.60;;
36923;SDS011;22841;50.252;18.688;2023-07-31T13:54:31;7.28;;;1.75;;
36923;SDS011;22841;50.252;18.688;2023-07-31T13:56:57;6.22;;;2.20;;
36923;SDS011;22841;50.252;18.688;2023-07-31T13:59:23;3.85;;;1.63;;
36923;SDS011;22841;50.252;18.688;2023-07-31T14:01:49;7.65;;;1.90;;
36923;SDS011;22841;50.252;18.688;2023-07-31T14:04:16;1.25;;;1.00;;
36923;SDS011;22841;50.252;18.688;2023-07-31T14:06:43;7.63;;;1.73;;
36923;SDS011;22841;50.252;18.688;2023-07-31T14:09:10;5.72;;;1.45;;
36923;SDS011;22841;50.252;18.688;2023-07-31T14:11:36;4.65;;;1.33;;
36923;SDS011;22841;50.252;18.688;2023-07-31T14:14:02;8.93;;;2.60;;
36923;SDS011;22841;50.252;18.688;2023-07-31T14:16:28;4.07;;;1.55;;
36923;SDS011;22841;50.252;18.688;2023-07-31T14:18:55;2.70;;;1.50;;
36923;SDS011;22841;50.252;18.688;2023-07-31T14:21:21;5.20;;;1.58;;
36923;SDS011;22841;50.252;18.688;2023-07-31T14:23:47;6.88;;;1.50;;
36923;SDS011;22841;50.252;18.688;2023-07-31T14:26:13;5.00;;;1.85;;
36923;SDS011;22841;50.252;18.688;2023-07-31T14:28:39;6.35;;;1.50;;
36923;SDS011;22841;50.252;18.688;2023-07-31T14:31:05;5.20;;;1.10;;
36923;SDS011;22841;50.252;18.688;2023-07-31T14:33:32;2.08;;;1.05;;
36923;SDS011;22841;50.252;18.688;2023-07-31T14:35:58;1.40;;;1.15;;
36923;SDS011;22841;50.252;18.688;2023-07-31T14:38:24;1.33;;;1.00;;
36923;SDS011;22841;50.252;18.688;2023-07-31T14:40:51;3.30;;;0.90;;